createdAt,value
2023-01-10T00:00:56.028Z,101535.94
2023-01-10T00:03:22.986Z,101514.06
2023-01-10T00:05:49.941Z,101532.78
2023-01-10T00:08:17.374Z,101483.09
2023-01-10T00:10:44.737Z,101534.16
2023-01-10T00:13:25.247Z,101491.31
2023-01-10T00:15:53.873Z,101533.28
2023-01-10T00:18:21.670Z,101487.66
2023-01-10T00:20:52.274Z,101513.72
2023-01-10T00:23:23.423Z,101510.50
2023-01-10T00:25:50.478Z,101528.28
2023-01-10T00:28:20.528Z,101514.84
2023-01-10T00:30:55.807Z,101508.72
2023-01-10T00:33:23.954Z,101523.53
2023-01-10T00:35:51.125Z,101502.72
2023-01-10T00:38:18.223Z,101469.94
2023-01-10T00:40:46.243Z,101496.38
2023-01-10T00:43:31.825Z,101521.00
2023-01-10T00:45:58.853Z,101495.91
2023-01-10T00:48:25.968Z,101505.09
2023-01-10T00:50:53.108Z,101505.53
2023-01-10T00:53:20.459Z,101503.06
2023-01-10T00:55:47.528Z,101488.69
2023-01-10T00:58:15.703Z,101459.94
2023-01-10T01:00:47.004Z,101494.19
2023-01-10T01:03:14.102Z,101466.56
2023-01-10T01:05:44.793Z,101482.78
2023-01-10T01:08:13.128Z,101492.81
2023-01-10T01:10:40.177Z,101488.75
2023-01-10T01:13:14.554Z,101464.13
2023-01-10T01:15:41.590Z,101478.00
2023-01-10T01:18:10.603Z,101473.69
2023-01-10T01:20:40.037Z,101466.16
2023-01-10T01:23:06.935Z,101460.03
2023-01-10T01:25:34.225Z,101459.56
2023-01-10T01:28:02.005Z,101470.53
2023-01-10T01:30:29.198Z,101466.84
2023-01-10T01:32:56.174Z,101454.09
2023-01-10T01:35:25.300Z,101450.00
2023-01-10T01:37:52.688Z,101453.66
2023-01-10T01:40:22.613Z,101446.38
2023-01-10T01:42:55.623Z,101434.50
2023-01-10T01:45:34.949Z,101447.53
2023-01-10T01:48:09.233Z,101426.78
2023-01-10T01:50:50.348Z,101422.91
2023-01-10T01:53:33.806Z,101446.63
2023-01-10T01:56:08.155Z,101458.69
2023-01-10T01:58:50.855Z,101432.47
2023-01-10T02:01:18.215Z,101465.53
2023-01-10T02:03:50.281Z,101463.66
2023-01-10T02:06:19.347Z,101456.16
2023-01-10T02:08:58.368Z,101423.56
2023-01-10T02:11:26.175Z,101424.03
2023-01-10T02:13:54.430Z,101465.28
2023-01-10T02:16:21.505Z,101483.75
2023-01-10T02:18:48.646Z,101440.41
2023-01-10T02:21:31.460Z,101460.25
2023-01-10T02:25:05.521Z,101470.06
2023-01-10T02:27:48.447Z,101467.31
2023-01-10T02:30:24.678Z,101455.91
2023-01-10T02:33:04.509Z,101463.66
2023-01-10T02:35:32.032Z,101461.38
2023-01-10T02:38:11.240Z,101461.81
2023-01-10T02:41:07.138Z,101460.91
2023-01-10T02:43:39.954Z,101467.06
2023-01-10T02:46:12.260Z,101471.16
2023-01-10T02:48:39.232Z,101460.41
2023-01-10T02:51:24.481Z,101447.66
2023-01-10T02:53:58.234Z,101427.13
2023-01-10T02:56:43.357Z,101463.59
2023-01-10T02:59:22.429Z,101461.75
2023-01-10T03:02:25.713Z,101428.47
2023-01-10T03:05:04.545Z,101468.38
2023-01-10T03:08:01.511Z,101462.41
2023-01-10T03:10:43.201Z,101460.75
2023-01-10T03:13:21.690Z,101441.44
2023-01-10T03:15:50.273Z,101435.28
2023-01-10T03:18:42.010Z,101463.25
2023-01-10T03:21:11.374Z,101464.13
2023-01-10T03:25:56.250Z,101464.34
2023-01-10T11:28:45.942Z,101622.13
2023-01-10T11:31:12.920Z,101594.28
2023-01-10T11:33:42.167Z,101626.94
2023-01-10T11:36:13.229Z,101613.59
2023-01-10T11:38:40.435Z,101594.03
2023-01-10T11:41:25.565Z,101574.47
2023-01-10T11:43:52.634Z,101600.00
2023-01-10T11:46:25.956Z,101594.41
2023-01-10T11:49:08.382Z,101611.31
2023-01-10T11:51:45.114Z,101604.09
2023-01-10T11:54:17.941Z,101608.75
2023-01-10T11:57:14.252Z,101601.31
2023-01-10T11:59:53.017Z,101595.00
2023-01-10T12:02:33.726Z,101582.28
2023-01-10T12:05:06.485Z,101609.91
2023-01-10T12:07:57.163Z,101628.75
2023-01-10T12:10:27.754Z,101599.69
2023-01-10T12:13:13.968Z,101602.22
2023-01-10T12:15:41.280Z,101625.13
2023-01-10T12:18:08.600Z,101632.06
2023-01-10T12:20:46.727Z,101578.13
2023-01-10T12:23:19.544Z,101631.34
2023-01-10T12:25:47.970Z,101618.84
2023-01-10T12:28:20.774Z,101627.25
2023-01-10T12:30:53.298Z,101623.41
2023-01-10T12:33:24.507Z,101607.63
2023-01-10T12:36:13.371Z,101633.97
2023-01-10T12:39:03.891Z,101605.97
2023-01-10T12:42:01.713Z,101628.16
2023-01-10T12:44:43.667Z,101633.38
2023-01-10T12:47:14.798Z,101634.69
2023-01-10T12:49:51.593Z,101641.91
2023-01-10T12:52:43.099Z,101625.19
2023-01-10T12:55:22.090Z,101635.25
2023-01-10T12:57:57.949Z,101637.31
2023-01-10T13:00:47.229Z,101624.91
2023-01-10T13:03:21.624Z,101608.56
2023-01-10T13:05:50.856Z,101636.34
2023-01-10T13:08:23.250Z,101625.44
2023-01-10T13:10:54.114Z,101638.69
2023-01-10T13:13:26.791Z,101646.50
2023-01-10T13:16:03.995Z,101632.00
2023-01-10T13:18:32.232Z,101653.69
2023-01-10T13:21:13.731Z,101646.41
2023-01-10T13:23:49.869Z,101606.75
2023-01-10T13:26:17.636Z,101635.66
2023-01-10T13:28:57.719Z,101650.94
2023-01-10T13:31:35.236Z,101653.28
2023-01-10T13:34:02.296Z,101626.13
2023-01-10T13:36:36.758Z,101617.91
2023-01-10T13:39:09.034Z,101618.44
2023-01-10T13:42:20.877Z,101639.53
2023-01-10T13:45:10.182Z,101648.22
2023-01-10T13:47:41.057Z,101661.22
2023-01-10T13:50:24.814Z,101652.53
2023-01-10T13:53:15.190Z,101613.66
2023-01-10T13:55:53.832Z,101616.88
2023-01-10T13:58:42.574Z,101631.44
2023-01-10T14:01:40.481Z,101636.16
2023-01-10T14:04:08.127Z,101629.25
2023-01-10T14:06:41.384Z,101634.47
2023-01-10T14:09:14.665Z,101641.91
2023-01-10T14:11:44.728Z,101648.63
2023-01-10T14:14:23.976Z,101639.91
2023-01-10T14:16:57.540Z,101625.22
2023-01-10T14:19:29.173Z,101627.03
2023-01-10T14:22:00.109Z,101624.50
2023-01-10T14:24:42.642Z,101638.63
2023-01-10T14:27:18.980Z,101620.81
2023-01-10T14:29:56.396Z,101587.66
2023-01-10T14:32:38.650Z,101626.03
2023-01-10T14:35:29.705Z,101643.63
2023-01-10T14:37:59.343Z,101617.06
2023-01-10T14:40:45.277Z,101622.13
2023-01-10T14:43:24.401Z,101635.13
2023-01-10T14:45:59.241Z,101634.50
2023-01-10T14:48:35.270Z,101657.16
2023-01-10T14:51:27.204Z,101659.16
2023-01-10T14:54:11.883Z,101656.94
2023-01-10T14:56:41.992Z,101620.97
2023-01-10T14:59:18.507Z,101680.88
2023-01-10T15:01:49.253Z,101625.00
2023-01-10T15:04:18.465Z,101660.59
2023-01-10T15:06:57.944Z,101662.94
2023-01-10T15:09:25.701Z,101667.81
2023-01-10T15:11:54.073Z,101645.63
2023-01-10T15:14:26.344Z,101620.28
2023-01-10T15:17:02.292Z,101663.22
2023-01-10T15:19:35.356Z,101660.69
2023-01-10T15:22:04.214Z,101673.34
2023-01-10T15:24:34.556Z,101666.06
2023-01-10T15:27:08.896Z,101651.75
2023-01-10T15:29:37.211Z,101655.00
2023-01-10T15:32:22.445Z,101661.88
2023-01-10T15:34:52.024Z,101634.09
2023-01-10T15:37:27.583Z,101627.22
2023-01-10T15:39:55.299Z,101606.53
2023-01-10T15:42:23.150Z,101639.41
2023-01-10T15:44:55.482Z,101655.44
2023-01-10T15:47:53.077Z,101645.06
2023-01-10T15:50:23.483Z,101650.88
2023-01-10T15:52:52.965Z,101586.66
2023-01-10T15:55:37.946Z,101685.19
2023-01-10T15:58:26.568Z,101599.03
2023-01-10T16:00:55.258Z,101654.47
2023-01-10T16:03:31.811Z,101653.06
2023-01-10T16:06:00.869Z,101627.38
2023-01-10T16:08:39.030Z,101649.00
2023-01-10T16:11:09.304Z,101648.69
2023-01-10T16:13:37.590Z,101653.75
2023-01-10T16:16:14.942Z,101619.25
2023-01-10T16:18:42.096Z,101650.88
2023-01-10T16:21:11.709Z,101657.75
2023-01-10T16:23:46.201Z,101598.84
2023-01-10T16:26:14.836Z,101627.22
2023-01-10T16:28:42.186Z,101647.94
2023-01-10T16:31:12.107Z,101657.34
2023-01-10T16:33:39.145Z,101667.88
2023-01-10T16:36:15.302Z,101645.41
2023-01-10T16:38:42.932Z,101651.56
2023-01-10T16:41:30.348Z,101630.06
2023-01-10T16:43:57.817Z,101629.53
2023-01-10T16:46:25.324Z,101670.34
2023-01-10T16:48:53.539Z,101649.63
2023-01-10T16:51:26.218Z,101667.09
2023-01-10T16:53:53.850Z,101637.34
2023-01-10T16:56:23.629Z,101656.56
2023-01-10T16:58:51.471Z,101657.88
2023-01-10T17:01:21.729Z,101654.56
2023-01-10T17:03:49.144Z,101666.31
2023-01-10T17:06:16.604Z,101622.19
2023-01-10T17:08:46.521Z,101602.88
2023-01-10T17:11:20.391Z,101639.16
2023-01-10T17:13:47.887Z,101647.16
2023-01-10T17:16:19.259Z,101645.31
2023-01-10T17:18:47.439Z,101658.31
2023-01-10T17:21:20.320Z,101633.13
2023-01-10T17:23:47.980Z,101643.31
2023-01-10T17:26:18.288Z,101651.44
2023-01-10T17:28:46.696Z,101663.78
2023-01-10T17:31:13.985Z,101670.63
2023-01-10T17:33:42.832Z,101722.47
2023-01-10T17:36:11.268Z,101663.78
2023-01-10T17:38:39.341Z,101668.94
2023-01-10T17:41:07.563Z,101661.13
2023-01-10T17:43:34.826Z,101631.69
2023-01-10T17:46:05.918Z,101623.44
2023-01-10T17:48:34.909Z,101596.91
2023-01-10T17:51:02.958Z,101642.41
2023-01-10T17:53:30.465Z,101660.53
2023-01-10T17:56:00.260Z,101652.41
2023-01-10T17:58:27.352Z,101642.47
2023-01-10T18:00:54.643Z,101637.91
2023-01-10T18:03:21.951Z,101647.09
2023-01-10T18:05:53.592Z,101653.97
2023-01-10T18:08:21.614Z,101654.69
2023-01-10T18:10:50.688Z,101640.56
2023-01-10T18:13:20.814Z,101598.72
2023-01-10T18:15:50.092Z,101619.66
2023-01-10T18:18:17.419Z,101629.03
2023-01-10T18:20:45.265Z,101636.19
2023-01-10T18:23:23.689Z,101642.78
2023-01-10T18:26:07.466Z,101617.44
2023-01-10T18:28:42.507Z,101607.94
2023-01-10T18:31:16.621Z,101645.28
2023-01-10T18:33:45.920Z,101637.72
2023-01-10T18:36:19.337Z,101638.00
2023-01-10T18:38:48.623Z,101628.28
2023-01-10T18:41:17.135Z,101630.44
2023-01-10T18:43:44.456Z,101605.59
2023-01-10T18:46:15.220Z,101634.09
2023-01-10T18:48:42.505Z,101620.28
2023-01-10T18:51:12.625Z,101634.59
2023-01-10T18:53:41.462Z,101635.19
2023-01-10T18:56:09.859Z,101643.09
2023-01-10T18:58:39.981Z,101581.72
2023-01-10T19:01:11.293Z,101642.94
2023-01-10T19:03:39.056Z,101631.47
2023-01-10T19:06:10.743Z,101637.47
2023-01-10T19:08:39.514Z,101612.66
2023-01-10T19:11:14.912Z,101636.53
2023-01-10T19:13:44.231Z,101623.81
2023-01-10T19:16:17.420Z,101620.97
2023-01-10T19:18:49.214Z,101649.00
2023-01-10T19:21:17.973Z,101618.56
2023-01-10T19:23:47.419Z,101632.19
2023-01-10T19:26:15.444Z,101646.81
2023-01-10T19:28:44.616Z,101623.66
2023-01-10T19:31:19.958Z,101631.75
2023-01-10T19:33:48.327Z,101633.16
2023-01-10T19:36:16.564Z,101612.75
2023-01-10T19:38:44.403Z,101646.44
2023-01-10T19:41:12.040Z,101622.13
2023-01-10T19:43:39.614Z,101632.31
2023-01-10T19:46:11.798Z,101628.09
2023-01-10T19:48:39.583Z,101635.78
2023-01-10T19:51:06.923Z,101632.13
2023-01-10T19:53:36.178Z,101616.78
2023-01-10T19:56:09.696Z,101628.50
2023-01-10T19:58:38.601Z,101616.97
2023-01-10T20:01:11.783Z,101665.38
2023-01-10T20:03:42.409Z,101626.59
2023-01-10T20:06:14.318Z,101623.09
2023-01-10T20:08:42.044Z,101600.94
2023-01-10T20:11:09.787Z,101629.53
2023-01-10T20:13:39.265Z,101616.38
2023-01-10T20:16:07.272Z,101624.47
2023-01-10T20:18:34.261Z,101616.06
2023-01-10T20:21:06.680Z,101619.91
2023-01-10T20:23:35.718Z,101632.75
2023-01-10T20:26:18.258Z,101618.59
2023-01-10T20:28:45.959Z,101628.63
2023-01-10T20:31:16.284Z,101627.69
2023-01-10T20:33:43.759Z,101638.84
2023-01-10T20:36:13.663Z,101621.53
2023-01-10T20:38:40.770Z,101657.00
2023-01-10T20:41:10.567Z,101645.06
2023-01-10T20:43:38.076Z,101627.94
2023-01-10T20:46:11.515Z,101641.19
2023-01-10T20:48:40.180Z,101638.84
2023-01-10T20:51:08.809Z,101632.31
2023-01-10T20:53:35.746Z,101617.38
2023-01-10T20:56:08.649Z,101648.41
2023-01-10T20:58:35.729Z,101623.66
2023-01-10T21:01:03.046Z,101632.63
2023-01-10T21:03:30.315Z,101647.28
2023-01-10T21:05:59.423Z,101632.22
2023-01-10T21:08:27.327Z,101629.31
2023-01-10T21:10:54.497Z,101625.22
2023-01-10T21:13:21.877Z,101644.88
2023-01-10T21:15:53.625Z,101625.75
2023-01-10T21:18:24.401Z,101637.28
2023-01-10T21:20:56.348Z,101623.78
2023-01-10T21:23:25.333Z,101622.44
2023-01-10T21:25:54.369Z,101639.78
2023-01-10T21:28:21.861Z,101620.94
2023-01-10T21:30:48.937Z,101607.03
2023-01-10T21:33:16.231Z,101613.91
2023-01-10T21:35:51.973Z,101641.41
2023-01-10T21:38:19.170Z,101600.53
2023-01-10T21:40:46.336Z,101586.88
2023-01-10T21:43:16.532Z,101529.47
2023-01-10T21:45:46.812Z,101509.84
2023-01-10T21:48:13.966Z,101633.28
2023-01-10T21:50:42.992Z,101637.97
2023-01-10T21:53:10.721Z,101624.81
2023-01-10T21:55:37.848Z,101626.56
2023-01-10T21:58:04.933Z,101628.22
2023-01-10T22:00:32.247Z,101640.53
2023-01-10T22:02:59.898Z,101626.78
2023-01-10T22:05:26.965Z,101626.78
2023-01-10T22:07:56.153Z,101634.06
2023-01-10T22:10:23.613Z,101596.25
2023-01-10T22:12:50.700Z,101625.03
2023-01-10T22:15:17.838Z,101620.25
2023-01-10T22:17:44.982Z,101572.59
2023-01-10T22:20:12.623Z,101639.50
2023-01-10T22:22:39.688Z,101635.34
2023-01-10T22:25:07.426Z,101607.75
2023-01-10T22:27:34.350Z,101641.34
2023-01-10T22:30:01.323Z,101638.09
2023-01-10T22:32:29.204Z,101596.38
2023-01-10T22:34:56.265Z,101622.47
2023-01-10T22:37:23.312Z,101620.66
2023-01-10T22:39:50.438Z,101612.66
2023-01-10T22:42:17.495Z,101622.09
2023-01-10T22:44:44.485Z,101615.59
2023-01-10T22:47:11.599Z,101616.69
2023-01-10T22:49:38.825Z,101623.94
2023-01-10T22:52:08.581Z,101599.50
2023-01-10T22:54:35.572Z,101595.03
2023-01-10T22:57:02.620Z,101604.84
2023-01-10T22:59:44.551Z,101604.75
2023-01-10T23:02:11.671Z,101601.13
2023-01-10T23:04:38.758Z,101625.81
2023-01-10T23:07:05.887Z,101611.84
2023-01-10T23:09:32.949Z,101574.47
2023-01-10T23:11:59.989Z,101597.16
2023-01-10T23:14:27.070Z,101589.56
2023-01-10T23:16:55.095Z,101560.41
2023-01-10T23:19:22.362Z,101551.69
2023-01-10T23:21:51.545Z,101564.03
2023-01-10T23:24:18.651Z,101559.78
2023-01-10T23:26:45.609Z,101570.94
2023-01-10T23:29:12.610Z,101596.13
2023-01-10T23:31:40.345Z,101611.06
2023-01-10T23:34:07.481Z,101580.88
2023-01-10T23:36:34.555Z,101595.75
2023-01-10T23:39:01.652Z,101612.16
2023-01-10T23:41:29.008Z,101592.22
2023-01-10T23:43:56.125Z,101576.50
2023-01-10T23:46:23.458Z,101600.03
2023-01-10T23:48:50.540Z,101547.44
2023-01-10T23:51:17.643Z,101600.53
2023-01-10T23:53:44.616Z,101579.38
2023-01-10T23:56:14.380Z,101610.69
2023-01-10T23:58:41.327Z,101600.16
